Time;durP1;ratioP1;P1;durP2;ratioP2;P2;SDS_P1;SDS_P2;PMS_P1;PMS_P2;Temp;Humidity;BMP_temperature;BMP_pressure;BME280_temperature;BME280_humidity;BME280_pressure;Samples;Min_cycle;Max_cycle;Signal;HPM_P1;HPM_P2
2021/03/04 00:00:25;;;;;;;16.52;12.18;;;;;;;12.99;60.41;101200.41;4904772;28;128395;-61
2021/03/04 00:02:51;;;;;;;14.65;11.43;;;;;;;13.00;60.27;101207.44;4924420;28;97890;-60
2021/03/04 00:05:18;;;;;;;14.38;11.35;;;;;;;12.98;60.37;101210.44;4923751;28;98245;-60
2021/03/04 00:07:44;;;;;;;16.13;11.85;;;;;;;12.97;60.38;101206.09;4923389;28;102525;-60
2021/03/04 00:10:18;;;;;;;14.40;11.77;;;;;;;12.95;60.49;101210.16;4922454;28;126385;-60
2021/03/04 00:12:44;;;;;;;15.15;12.07;;;;;;;12.94;60.48;101208.53;4924095;28;97820;-60
2021/03/04 00:15:12;;;;;;;14.15;11.52;;;;;;;12.92;60.27;101197.94;4922335;28;126051;-61
2021/03/04 00:17:38;;;;;;;14.73;11.40;;;;;;;12.93;60.32;101196.06;4923515;28;100010;-61
2021/03/04 00:20:13;;;;;;;15.55;11.63;;;;;;;12.89;60.30;101203.06;4922213;28;121386;-61
2021/03/04 00:22:39;;;;;;;15.25;11.98;;;;;;;12.90;60.33;101202.03;4923681;28;97885;-60
2021/03/04 00:25:07;;;;;;;15.70;11.52;;;;;;;12.88;60.48;101198.75;4922436;28;128136;-60
2021/03/04 00:27:33;;;;;;;15.05;12.05;;;;;;;12.88;60.37;101193.34;4922717;28;123160;-60
2021/03/04 00:30:00;;;;;;;14.63;11.32;;;;;;;12.87;60.85;101192.53;4921898;28;125678;-61
2021/03/04 00:32:26;;;;;;;13.38;10.98;;;;;;;12.85;60.83;101194.69;4923945;28;97807;-60
2021/03/04 00:34:52;;;;;;;14.80;11.80;;;;;;;12.85;60.64;101193.88;4920577;28;129334;-60
2021/03/04 00:37:18;;;;;;;14.85;11.75;;;;;;;12.84;60.38;101195.75;4924082;28;98445;-61
2021/03/04 00:39:44;;;;;;;15.38;11.65;;;;;;;12.84;60.57;101195.75;4922726;28;97955;-61
2021/03/04 00:42:10;;;;;;;14.95;11.65;;;;;;;12.83;60.37;101186.03;4921447;28;97799;-60
2021/03/04 00:44:37;;;;;;;14.88;11.35;;;;;;;12.84;60.59;101192.25;4922289;28;110155;-60
2021/03/04 00:47:04;;;;;;;14.80;11.93;;;;;;;12.81;60.72;101185.50;4922170;28;127666;-60
2021/03/04 00:49:30;;;;;;;15.63;11.45;;;;;;;12.82;60.54;101184.41;4903870;28;121386;-61
2021/03/04 00:51:56;;;;;;;15.50;11.43;;;;;;;12.81;60.69;101179.25;4922805;28;115905;-62
2021/03/04 00:54:22;;;;;;;16.05;11.60;;;;;;;12.80;60.62;101167.59;4921500;28;126940;-60
2021/03/04 00:56:48;;;;;;;14.90;11.70;;;;;;;12.80;60.70;101170.31;4922068;28;126863;-60
2021/03/04 00:59:14;;;;;;;14.40;11.32;;;;;;;12.80;60.64;101164.09;4902606;28;112188;-60
2021/03/04 01:01:40;;;;;;;13.75;11.45;;;;;;;12.77;60.66;101168.97;4903851;28;115921;-60
2021/03/04 01:04:06;;;;;;;15.70;11.88;;;;;;;12.76;60.56;101164.63;4901695;28;98451;-60
2021/03/04 01:06:32;;;;;;;14.40;11.55;;;;;;;12.77;60.71;101160.00;4902561;28;128391;-60
2021/03/04 01:08:58;;;;;;;15.27;11.57;;;;;;;12.78;60.66;101150.84;4901008;28;127548;-60
2021/03/04 01:11:24;;;;;;;14.30;11.82;;;;;;;12.77;60.85;101150.03;4902188;28;118019;-60
2021/03/04 01:13:50;;;;;;;15.13;11.45;;;;;;;12.77;60.71;101141.06;4905578;28;127534;-60
2021/03/04 01:16:17;;;;;;;14.13;11.18;;;;;;;12.77;60.92;101135.66;4902526;28;126306;-60
2021/03/04 01:18:43;;;;;;;14.75;11.07;;;;;;;12.77;60.95;101139.22;4900035;28;126252;-60
2021/03/04 01:21:09;;;;;;;13.63;11.40;;;;;;;12.75;61.17;101141.34;4902602;28;115706;-60
2021/03/04 01:23:35;;;;;;;14.57;11.50;;;;;;;12.76;61.06;101136.75;4901425;28;98304;-61
2021/03/04 01:26:01;;;;;;;14.88;11.05;;;;;;;12.75;60.84;101146.75;4906077;28;129561;-60
2021/03/04 01:28:27;;;;;;;15.55;11.65;;;;;;;12.75;60.98;101132.44;4902379;28;127841;-61
2021/03/04 01:30:53;;;;;;;15.48;11.30;;;;;;;12.73;60.88;101139.97;4903285;28;97652;-61
2021/03/04 01:33:20;;;;;;;14.07;11.05;;;;;;;12.74;60.99;101133.53;4900367;28;112311;-60
2021/03/04 01:35:49;;;;;;;14.73;11.30;;;;;;;12.71;61.10;101129.44;4903202;28;98549;-61
2021/03/04 01:38:15;;;;;;;15.00;11.18;;;;;;;12.72;61.24;101128.34;4884691;28;127499;-62
2021/03/04 01:40:41;;;;;;;14.82;11.52;;;;;;;12.72;61.46;101117.53;4903353;28;98058;-61
2021/03/04 01:43:07;;;;;;;14.60;11.57;;;;;;;12.72;61.11;101119.44;4900817;28;119848;-61
2021/03/04 01:45:33;;;;;;;14.13;11.48;;;;;;;12.71;61.17;101117.81;4903200;28;98218;-60
2021/03/04 01:47:59;;;;;;;14.00;11.23;;;;;;;12.71;61.07;101113.22;4904866;28;125216;-60
2021/03/04 01:50:27;;;;;;;14.80;11.57;;;;;;;12.68;60.99;101102.91;4904210;28;117917;-61
2021/03/04 01:52:53;;;;;;;15.60;11.98;;;;;;;12.68;61.24;101100.22;4906671;28;97949;-60
2021/03/04 01:55:20;;;;;;;15.48;12.30;;;;;;;12.68;61.19;101094.00;4904107;28;106871;-61
2021/03/04 01:57:47;;;;;;;14.85;11.68;;;;;;;12.68;61.14;101091.28;4913129;28;98336;-61
2021/03/04 02:00:14;;;;;;;15.82;11.82;;;;;;;12.67;61.21;101098.59;4925986;28;97852;-60
2021/03/04 02:03:31;;;;;;;14.45;11.75;;;;;;;12.65;61.24;101091.81;4926353;28;98456;-60
2021/03/04 02:05:57;;;;;;;13.68;10.90;;;;;;;12.64;61.19;101090.19;4923687;28;98638;-60
2021/03/04 02:09:08;;;;;;;15.55;12.10;;;;;;;12.62;61.13;101087.78;4925149;28;98925;-61
2021/03/04 02:11:51;;;;;;;15.02;11.57;;;;;;;12.61;61.10;101085.31;4847886;28;101264;-60
2021/03/04 02:14:30;;;;;;;14.68;12.10;;;;;;;12.61;61.06;101088.00;4900047;28;98530;-62
2021/03/04 02:16:59;;;;;;;16.05;12.35;;;;;;;12.61;61.34;101088.81;4908037;28;98510;-61
2021/03/04 02:19:49;;;;;;;16.13;12.05;;;;;;;12.60;61.17;101081.00;4923249;28;98320;-60
2021/03/04 02:22:49;;;;;;;16.52;12.02;;;;;;;12.59;61.36;101082.06;4923689;28;97866;-60
2021/03/04 02:25:44;;;;;;;15.40;11.65;;;;;;;12.57;61.03;101071.50;4922512;28;99004;-60
2021/03/04 02:28:11;;;;;;;15.75;12.68;;;;;;;12.59;61.23;101071.25;4923663;28;98589;-61
2021/03/04 02:30:37;;;;;;;16.35;12.35;;;;;;;12.60;61.19;101064.75;4890906;28;98004;-61
2021/03/04 02:33:30;;;;;;;15.23;12.30;;;;;;;12.57;61.46;101062.59;4923684;28;97810;-60
2021/03/04 02:35:56;;;;;;;17.10;13.13;;;;;;;12.57;61.50;101052.56;4900009;28;98271;-61
2021/03/04 02:38:23;;;;;;;15.55;12.05;;;;;;;12.57;61.39;101046.34;4922815;28;98421;-61
2021/03/04 02:40:51;;;;;;;15.10;12.43;;;;;;;12.58;61.29;101046.09;4922838;28;98128;-61
2021/03/04 02:43:19;;;;;;;15.60;12.20;;;;;;;12.59;61.36;101049.63;4923492;28;98247;-61
2021/03/04 02:45:45;;;;;;;15.88;12.52;;;;;;;12.59;61.45;101049.63;4907016;28;98516;-60
2021/03/04 02:48:17;;;;;;;15.25;12.25;;;;;;;12.57;61.53;101044.47;4922669;28;98005;-60
2021/03/04 02:50:44;;;;;;;14.48;12.18;;;;;;;12.58;61.49;101046.09;4922914;28;98303;-61
2021/03/04 02:53:11;;;;;;;16.92;12.57;;;;;;;12.57;61.18;101040.94;4906834;28;98174;-60
2021/03/04 02:55:37;;;;;;;17.23;13.07;;;;;;;12.57;61.26;101041.75;4906803;28;98480;-60
2021/03/04 02:58:04;;;;;;;17.05;12.77;;;;;;;12.58;61.46;101038.00;4922723;28;98688;-60
2021/03/04 03:00:31;;;;;;;17.08;11.98;;;;;;;12.56;61.04;101032.03;4907048;28;97949;-60
2021/03/04 03:02:58;;;;;;;16.27;12.70;;;;;;;12.56;61.27;101034.72;4923373;28;97930;-60
2021/03/04 03:05:26;;;;;;;14.93;12.13;;;;;;;12.53;61.43;101033.38;4929451;28;98160;-60
2021/03/04 03:07:52;;;;;;;16.08;12.45;;;;;;;12.53;61.53;101029.84;4924750;28;98775;-60
2021/03/04 03:10:19;;;;;;;16.63;12.65;;;;;;;12.53;61.44;101036.06;4922424;28;102868;-61
2021/03/04 03:12:46;;;;;;;16.92;12.52;;;;;;;12.53;61.51;101029.84;4922617;28;98032;-61
2021/03/04 03:15:16;;;;;;;16.77;12.98;;;;;;;12.50;61.37;101025.81;4923151;28;98010;-61
2021/03/04 03:17:42;;;;;;;16.00;12.35;;;;;;;12.51;61.23;101018.50;4924458;28;98135;-61
2021/03/04 03:20:11;;;;;;;15.88;12.85;;;;;;;12.51;61.42;101018.50;4924545;28;98877;-60
2021/03/04 03:22:38;;;;;;;17.83;12.93;;;;;;;12.47;61.37;101015.50;4922126;28;97863;-60
2021/03/04 03:25:06;;;;;;;16.55;12.80;;;;;;;12.47;61.28;101022.81;4924853;28;98321;-61
2021/03/04 03:27:32;;;;;;;15.65;12.35;;;;;;;12.48;61.73;101029.84;4923568;28;119138;-61
2021/03/04 03:29:59;;;;;;;17.92;12.98;;;;;;;12.48;61.70;101011.72;4923426;28;120700;-61
2021/03/04 03:32:25;;;;;;;17.33;13.30;;;;;;;12.47;61.80;101026.34;4905627;28;114535;-61
2021/03/04 03:34:51;;;;;;;16.83;12.93;;;;;;;12.47;61.51;101026.34;4890191;28;98869;-61
2021/03/04 03:37:17;;;;;;;16.95;13.15;;;;;;;12.50;61.71;101027.69;4889365;28;127441;-61
2021/03/04 03:39:44;;;;;;;16.52;12.70;;;;;;;12.53;61.48;101019.84;4904946;28;126604;-61
2021/03/04 03:42:10;;;;;;;16.42;12.65;;;;;;;12.59;61.31;101019.88;4906381;28;98020;-61
2021/03/04 03:44:38;;;;;;;14.88;12.25;;;;;;;12.62;61.35;101022.06;4922860;28;126858;-61
2021/03/04 03:47:04;;;;;;;17.88;13.60;;;;;;;12.63;61.17;101013.66;4921991;28;113140;-60
2021/03/04 03:49:31;;;;;;;17.77;13.20;;;;;;;12.68;60.90;101016.38;4923840;28;98334;-61
2021/03/04 03:51:59;;;;;;;16.33;13.23;;;;;;;12.70;60.83;101010.72;4906788;28;98248;-61
2021/03/04 03:54:26;;;;;;;15.98;12.60;;;;;;;12.70;60.71;101005.28;4905263;28;119798;-60
2021/03/04 03:56:53;;;;;;;17.10;12.95;;;;;;;12.69;60.80;101007.19;4922136;28;98868;-61
2021/03/04 03:59:19;;;;;;;18.83;12.85;;;;;;;12.71;60.57;100998.78;4937430;28;121585;-60
2021/03/04 04:01:45;;;;;;;17.23;12.98;;;;;;;12.71;60.81;101001.50;4922087;28;97880;-59
2021/03/04 04:04:11;;;;;;;15.68;12.73;;;;;;;12.71;60.63;100991.50;4885865;28;98704;-60
2021/03/04 04:06:37;;;;;;;15.48;13.00;;;;;;;12.69;60.48;100982.00;4918034;28;127772;-62
2021/03/04 04:09:03;;;;;;;17.08;13.40;;;;;;;12.69;60.55;100979.31;4932579;28;127712;-61
2021/03/04 04:11:30;;;;;;;16.25;12.95;;;;;;;12.69;60.73;100984.72;4924063;28;98018;-60
2021/03/04 04:13:56;;;;;;;17.00;13.73;;;;;;;12.65;60.95;100978.22;4923505;28;97897;-60
2021/03/04 04:16:22;;;;;;;16.77;13.02;;;;;;;12.65;60.77;100981.72;4921627;28;99377;-60
2021/03/04 04:18:48;;;;;;;16.33;13.35;;;;;;;12.64;60.54;100985.53;4921532;28;98138;-61
2021/03/04 04:21:14;;;;;;;17.40;13.30;;;;;;;12.64;60.69;100982.81;4921289;28;117913;-61
2021/03/04 04:23:41;;;;;;;16.52;12.80;;;;;;;12.64;60.53;100982.00;4920266;28;127575;-61
2021/03/04 04:26:07;;;;;;;16.77;13.20;;;;;;;12.62;60.57;100976.06;4923539;28;99070;-60
2021/03/04 04:28:33;;;;;;;16.88;13.00;;;;;;;12.62;61.05;100970.66;4921309;28;98102;-60
2021/03/04 04:30:59;;;;;;;18.52;13.27;;;;;;;12.63;61.08;100975.00;4901562;28;97923;-60
2021/03/04 04:33:25;;;;;;;16.88;13.23;;;;;;;12.61;60.67;100969.84;4903568;28;98842;-60
2021/03/04 04:35:52;;;;;;;18.75;13.50;;;;;;;12.60;60.96;100964.69;4907797;28;125196;-60
2021/03/04 04:38:18;;;;;;;17.45;13.75;;;;;;;12.59;60.95;100966.59;4922367;28;126822;-60
2021/03/04 04:40:44;;;;;;;17.17;13.43;;;;;;;12.56;60.95;100960.91;4921261;28;98149;-60
2021/03/04 04:43:10;;;;;;;18.88;13.20;;;;;;;12.55;61.37;100953.88;4922357;28;126481;-60
2021/03/04 04:45:36;;;;;;;18.48;13.45;;;;;;;12.51;61.33;100945.50;4922576;28;127778;-61
2021/03/04 04:48:03;;;;;;;16.85;13.25;;;;;;;12.52;61.19;100945.22;4922192;28;127560;-61
2021/03/04 04:50:29;;;;;;;17.17;13.30;;;;;;;12.52;61.26;100944.41;4922541;28;98200;-60
2021/03/04 04:52:55;;;;;;;17.52;13.30;;;;;;;12.52;61.26;100950.63;4919594;28;127640;-61
2021/03/04 04:55:21;;;;;;;16.52;13.48;;;;;;;12.51;61.00;100948.19;4923364;28;102118;-61
2021/03/04 04:57:48;;;;;;;16.88;13.93;;;;;;;12.50;61.08;100947.38;4922251;28;98033;-60
2021/03/04 05:00:15;;;;;;;16.40;13.40;;;;;;;12.47;61.37;100945.22;4921519;28;118644;-61
2021/03/04 05:02:41;;;;;;;16.73;13.55;;;;;;;12.50;61.28;100946.59;4923010;28;98888;-61
2021/03/04 05:05:08;;;;;;;18.98;14.10;;;;;;;12.45;61.77;100947.38;4919931;28;126890;-60
2021/03/04 05:07:34;;;;;;;18.13;13.88;;;;;;;12.46;61.50;100937.38;4904090;28;114319;-61
2021/03/04 05:10:01;;;;;;;18.23;13.40;;;;;;;12.45;61.34;100930.34;4923040;28;97693;-61
2021/03/04 05:12:27;;;;;;;18.77;13.65;;;;;;;12.44;61.52;100921.41;4922541;28;115438;-60
2021/03/04 05:14:53;;;;;;;17.88;13.98;;;;;;;12.45;61.59;100919.50;4921512;28;128528;-60
2021/03/04 05:17:20;;;;;;;17.15;13.65;;;;;;;12.41;61.60;100918.44;4919441;28;128427;-61
2021/03/04 05:19:46;;;;;;;16.98;13.50;;;;;;;12.42;61.43;100912.78;4920721;28;97930;-61
2021/03/04 05:22:12;;;;;;;18.13;14.23;;;;;;;12.42;61.70;100922.78;4922372;28;98789;-61
2021/03/04 05:24:38;;;;;;;18.02;13.70;;;;;;;12.42;61.70;100911.97;4922024;28;99474;-60
2021/03/04 05:27:04;;;;;;;20.77;14.25;;;;;;;12.42;61.63;100920.06;4922188;28;117486;-60
2021/03/04 05:29:30;;;;;;;20.65;13.70;;;;;;;12.40;61.69;100916.81;4922320;28;113831;-60
2021/03/04 05:31:56;;;;;;;19.05;14.10;;;;;;;12.38;61.53;100914.41;4919665;28;128529;-60
2021/03/04 05:34:23;;;;;;;19.60;14.07;;;;;;;12.39;61.43;100909.78;4919471;28;128174;-60
2021/03/04 05:36:49;;;;;;;20.08;14.07;;;;;;;12.38;61.27;100914.41;4904480;28;97937;-60
2021/03/04 05:39:15;;;;;;;18.48;14.30;;;;;;;12.36;61.46;100913.84;4921506;28;118082;-61
2021/03/04 05:41:41;;;;;;;17.70;13.52;;;;;;;12.37;61.45;100909.25;4921058;28;127267;-61
2021/03/04 05:44:07;;;;;;;18.55;14.27;;;;;;;12.37;61.53;100903.84;4919565;28;110715;-60
2021/03/04 05:46:35;;;;;;;18.73;14.32;;;;;;;12.36;61.47;100910.31;4922057;28;117923;-62
2021/03/04 05:49:01;;;;;;;18.75;14.10;;;;;;;12.34;61.24;100902.50;4922508;28;97911;-61
2021/03/04 05:51:31;;;;;;;18.23;13.80;;;;;;;12.33;61.36;100908.16;4922383;28;104768;-61
2021/03/04 05:53:58;;;;;;;17.48;14.02;;;;;;;12.33;61.44;100902.75;4904138;28;117199;-61
2021/03/04 05:56:24;;;;;;;19.10;14.60;;;;;;;12.32;61.17;100910.03;4922465;28;98102;-60
2021/03/04 05:58:51;;;;;;;17.80;14.02;;;;;;;12.33;61.57;100908.16;4922229;28;97989;-61
2021/03/04 06:01:17;;;;;;;19.70;14.50;;;;;;;12.32;61.50;100904.63;4922118;28;98370;-60
2021/03/04 06:03:44;;;;;;;18.00;13.68;;;;;;;12.33;61.15;100902.75;4921868;28;98711;-60
2021/03/04 06:06:10;;;;;;;18.00;13.75;;;;;;;12.33;61.52;100898.16;4921500;28;99015;-61
2021/03/04 06:08:36;;;;;;;17.27;13.65;;;;;;;12.35;61.29;100895.19;4921907;28;97955;-60
2021/03/04 06:11:03;;;;;;;17.98;14.18;;;;;;;12.34;61.33;100891.69;4920635;28;121763;-61
2021/03/04 06:13:30;;;;;;;19.20;14.30;;;;;;;12.36;61.57;100894.91;4921227;28;113549;-61
2021/03/04 06:15:56;;;;;;;18.73;14.15;;;;;;;12.36;61.09;100892.22;4921594;28;115862;-62
2021/03/04 06:18:22;;;;;;;18.52;14.07;;;;;;;12.38;61.24;100895.47;4922078;28;98079;-60
2021/03/04 06:20:48;;;;;;;18.35;14.27;;;;;;;12.40;61.32;100892.47;4903115;28;99712;-61
2021/03/04 06:23:14;;;;;;;17.70;14.18;;;;;;;12.41;61.30;100894.91;4903204;28;103010;-61
2021/03/04 06:25:43;;;;;;;18.48;14.02;;;;;;;12.44;61.21;100905.19;4919260;28;121449;-61
2021/03/04 06:28:09;;;;;;;19.60;14.68;;;;;;;12.48;61.40;100900.88;4919617;28;109365;-61
2021/03/04 06:30:38;;;;;;;19.65;14.70;;;;;;;12.52;61.49;100901.94;4921018;28;124802;-60
2021/03/04 06:33:06;;;;;;;19.88;14.60;;;;;;;12.58;60.93;100901.97;4923966;28;98471;-61
2021/03/04 06:35:35;;;;;;;18.40;14.90;;;;;;;12.63;61.25;100894.66;4925196;28;97983;-60
2021/03/04 06:38:17;;;;;;;18.77;14.70;;;;;;;12.70;61.06;100897.09;4906804;28;111950;-60
2021/03/04 06:40:43;;;;;;;18.23;14.70;;;;;;;12.71;61.36;100898.72;4924620;28;99200;-60
2021/03/04 06:43:23;;;;;;;19.55;15.23;;;;;;;12.72;61.50;100895.72;4924542;28;113614;-61
2021/03/04 06:45:49;;;;;;;18.60;14.70;;;;;;;12.70;61.40;100894.41;4924970;28;98383;-61
2021/03/04 06:48:22;;;;;;;20.02;14.68;;;;;;;12.67;61.79;100894.94;4924735;28;109632;-60
2021/03/04 06:50:49;;;;;;;18.88;14.57;;;;;;;12.68;61.66;100893.84;4924758;28;98590;-60
2021/03/04 06:53:20;;;;;;;19.95;15.00;;;;;;;12.67;61.79;100887.63;4922560;28;112592;-61
2021/03/04 06:55:52;;;;;;;20.17;15.30;;;;;;;12.69;61.88;100888.19;4924032;28;120982;-60
2021/03/04 06:58:33;;;;;;;18.85;14.68;;;;;;;12.67;62.15;100884.91;4924213;28;97918;-61
2021/03/04 07:01:12;;;;;;;18.55;14.93;;;;;;;12.69;61.92;100892.75;4924877;28;98801;-60
2021/03/04 07:03:42;;;;;;;18.15;14.68;;;;;;;12.70;61.75;100883.59;4922953;28;98795;-61
2021/03/04 07:06:13;;;;;;;19.05;14.60;;;;;;;12.73;62.04;100883.00;4924989;28;98141;-61
2021/03/04 07:08:42;;;;;;;17.83;14.57;;;;;;;12.78;61.92;100881.13;4925620;28;97936;-61
2021/03/04 07:11:24;;;;;;;20.48;16.05;;;;;;;12.89;61.74;100878.41;4923155;28;120274;-62
2021/03/04 07:13:51;;;;;;;20.85;15.60;;;;;;;13.01;61.35;100882.47;4924851;28;99212;-61
2021/03/04 07:16:37;;;;;;;18.10;14.65;;;;;;;13.16;61.10;100880.78;4922657;28;97978;-61
2021/03/04 07:19:04;;;;;;;19.90;15.18;;;;;;;13.31;60.94;100880.78;4923181;28;98057;-60
2021/03/04 07:21:41;;;;;;;18.95;15.60;;;;;;;13.43;60.99;100877.78;4924002;28;99235;-61
2021/03/04 07:24:07;;;;;;;19.65;15.65;;;;;;;13.59;60.49;100871.19;4922157;28;98865;-61
2021/03/04 07:26:36;;;;;;;18.60;14.70;;;;;;;13.74;60.58;100879.25;4924258;28;97941;-61
2021/03/04 07:29:07;;;;;;;18.92;15.55;;;;;;;13.88;60.30;100868.66;4924953;28;97713;-60
2021/03/04 07:31:33;;;;;;;20.23;15.60;;;;;;;14.03;60.09;100880.47;4924437;28;101744;-60
2021/03/04 07:33:59;;;;;;;18.42;15.40;;;;;;;14.15;60.14;100864.69;4924110;28;103455;-61
2021/03/04 07:36:25;;;;;;;19.30;15.48;;;;;;;14.27;60.02;100864.34;4905729;28;98257;-61
2021/03/04 07:38:55;;;;;;;17.73;15.13;;;;;;;14.41;60.06;100860.69;4924921;28;98057;-60
2021/03/04 07:41:21;;;;;;;19.38;15.57;;;;;;;14.57;60.04;100845.13;4923869;28;98013;-60
2021/03/04 07:43:55;;;;;;;19.20;15.35;;;;;;;14.76;59.72;100850.66;4922535;28;97992;-61
2021/03/04 07:46:44;;;;;;;17.75;14.88;;;;;;;15.01;58.98;100856.91;4921710;28;97901;-61
2021/03/04 07:49:11;;;;;;;16.98;14.20;;;;;;;15.17;59.07;100863.84;4924112;28;97834;-61
2021/03/04 07:51:48;;;;;;;18.02;14.95;;;;;;;15.34;58.87;100853.31;4921216;28;115680;-61
2021/03/04 07:54:26;;;;;;;19.45;15.32;;;;;;;15.35;59.31;100852.19;4920965;28;98659;-60
2021/03/04 07:57:09;;;;;;;17.40;14.95;;;;;;;15.47;59.06;100860.75;4923415;28;98355;-61
2021/03/04 07:59:47;;;;;;;20.02;15.00;;;;;;;15.58;58.97;100850.56;4924164;28;98013;-61
2021/03/04 08:02:28;;;;;;;17.15;14.43;;;;;;;15.91;58.33;100851.50;4923645;28;99142;-60
2021/03/04 08:05:16;;;;;;;20.10;15.05;;;;;;;16.04;58.56;100852.69;4922829;28;98031;-61
2021/03/04 08:07:45;;;;;;;17.17;13.80;;;;;;;16.23;57.97;100852.69;4923966;28;97939;-61
2021/03/04 08:10:15;;;;;;;17.00;14.02;;;;;;;16.68;57.36;100851.13;4923699;28;108845;-61
2021/03/04 08:12:53;;;;;;;17.45;14.07;;;;;;;17.00;56.81;100848.69;4921189;28;97985;-61
2021/03/04 08:15:31;;;;;;;16.45;13.85;;;;;;;17.63;55.38;100843.31;4921537;28;98318;-61
2021/03/04 08:17:57;;;;;;;14.63;12.80;;;;;;;18.24;54.05;100840.38;4922800;28;101163;-61
2021/03/04 08:20:23;;;;;;;14.13;12.50;;;;;;;18.65;52.92;100840.13;4920401;28;117899;-60
2021/03/04 08:22:55;;;;;;;15.30;12.93;;;;;;;19.13;52.59;100840.22;4937730;28;100597;-60
2021/03/04 08:25:25;;;;;;;14.88;13.27;;;;;;;19.59;51.53;100833.47;4923897;28;98661;-61
2021/03/04 08:27:53;;;;;;;14.70;13.20;;;;;;;19.82;51.29;100836.09;4922485;28;121817;-61
2021/03/04 08:30:37;;;;;;;15.00;12.68;;;;;;;20.31;50.74;100831.25;4924156;28;97672;-61
2021/03/04 08:33:09;;;;;;;14.57;13.07;;;;;;;20.73;50.10;100826.06;4922803;28;98259;-61
2021/03/04 08:35:40;;;;;;;;;;;;;;;21.20;49.00;100821.34;4923328;28;112630;-61
2021/03/04 08:38:08;;;;;;;15.68;13.57;;;;;;;21.12;49.50;100822.19;4922358;28;100162;-61
2021/03/04 08:40:55;;;;;;;15.70;13.70;;;;;;;21.07;50.05;100825.13;4927091;28;97820;-61
2021/03/04 08:43:22;;;;;;;15.32;13.68;;;;;;;20.18;52.48;100818.56;4923101;28;98343;-61
2021/03/04 08:45:59;;;;;;;15.68;14.02;;;;;;;19.69;54.05;100829.66;4923052;28;102978;-61
2021/03/04 08:48:25;;;;;;;15.48;13.88;;;;;;;19.65;53.90;100819.66;4922925;28;98322;-61
2021/03/04 08:50:54;;;;;;;17.17;15.45;;;;;;;19.80;53.55;100816.47;4923514;28;97664;-61
2021/03/04 08:53:28;;;;;;;16.65;13.98;;;;;;;19.73;53.67;100813.38;4922409;28;97991;-62
2021/03/04 08:55:56;;;;;;;16.90;15.02;;;;;;;19.79;53.73;100821.13;4922284;28;98872;-61
2021/03/04 08:58:23;;;;;;;18.58;15.35;;;;;;;20.36;52.31;100814.69;4922841;28;98245;-61
2021/03/04 09:01:00;;;;;;;17.58;14.95;;;;;;;21.37;50.06;100808.72;4923475;28;98148;-61
2021/03/04 09:03:28;;;;;;;17.67;14.88;;;;;;;22.43;48.09;100805.63;4922353;28;98852;-62
2021/03/04 09:06:18;;;;;;;17.38;14.40;;;;;;;22.54;48.71;100804.84;4923250;28;97800;-61
2021/03/04 09:08:53;;;;;;;15.90;13.95;;;;;;;21.60;51.38;100801.78;4925028;28;127453;-61
2021/03/04 09:11:27;;;;;;;16.40;14.60;;;;;;;20.87;53.38;100809.41;4922388;28;97850;-61
2021/03/04 09:14:09;;;;;;;16.13;14.43;;;;;;;20.28;55.02;100807.28;4920501;28;100836;-61
2021/03/04 09:16:42;;;;;;;16.98;14.70;;;;;;;19.77;56.13;100806.19;4922693;28;99297;-61
2021/03/04 09:19:09;;;;;;;19.13;15.93;;;;;;;19.39;56.98;100806.72;4900931;28;117008;-60
2021/03/04 09:21:35;;;;;;;17.42;15.63;;;;;;;18.99;57.31;100798.59;4911018;28;97887;-61
2021/03/04 09:24:01;;;;;;;20.33;16.88;;;;;;;18.69;58.26;100805.63;4936145;28;127647;-60
2021/03/04 09:26:32;;;;;;;19.42;16.90;;;;;;;18.40;58.49;100804.19;4919391;28;126158;-60
2021/03/04 09:28:58;;;;;;;18.73;16.67;;;;;;;18.26;58.65;100798.00;4936454;28;98373;-61
2021/03/04 09:31:25;;;;;;;19.75;16.88;;;;;;;18.26;58.75;100797.19;4919169;28;111764;-61
2021/03/04 09:33:59;;;;;;;21.17;17.13;;;;;;;18.26;58.61;100794.47;4922628;28;98252;-61
2021/03/04 09:36:25;;;;;;;21.80;17.00;;;;;;;18.31;58.41;100789.69;4922377;28;98256;-60
2021/03/04 09:38:53;;;;;;;19.05;16.63;;;;;;;18.29;58.46;100783.72;4921451;28;121756;-61
2021/03/04 09:41:19;;;;;;;23.33;18.45;;;;;;;18.26;58.67;100786.28;4922815;28;97887;-60
2021/03/04 09:44:06;;;;;;;21.80;17.75;;;;;;;18.35;58.37;100792.59;4922394;28;98702;-62
2021/03/04 09:46:39;;;;;;;20.27;18.10;;;;;;;18.33;58.54;100792.91;4922002;28;98884;-61
2021/03/04 09:49:16;;;;;;;20.58;18.20;;;;;;;18.33;58.75;100786.66;4922457;28;98118;-61
2021/03/04 09:51:43;;;;;;;21.58;17.95;;;;;;;18.34;58.59;100785.53;4922949;28;97882;-61
2021/03/04 09:54:10;;;;;;;22.50;18.25;;;;;;;18.87;57.39;100788.25;4921560;28;99138;-60
2021/03/04 09:56:36;;;;;;;23.00;18.48;;;;;;;18.92;57.61;100792.75;4921849;28;97906;-61
2021/03/04 09:59:02;;;;;;;22.52;18.95;;;;;;;18.85;58.20;100787.75;4921062;28;127772;-61
2021/03/04 10:01:33;;;;;;;22.30;18.75;;;;;;;18.84;58.15;100790.81;4922549;28;104665;-61
2021/03/04 10:04:08;;;;;;;23.60;19.58;;;;;;;18.71;58.51;100797.19;4921911;28;99123;-61
2021/03/04 10:06:38;;;;;;;24.73;19.60;;;;;;;18.54;59.01;100803.31;4925984;28;99005;-60
2021/03/04 10:09:06;;;;;;;22.90;20.45;;;;;;;18.41;59.39;100799.53;4923366;28;97977;-62
2021/03/04 10:11:32;;;;;;;22.95;20.25;;;;;;;18.34;59.54;100804.63;4924666;28;110253;-59
2021/03/04 10:14:09;;;;;;;24.85;20.85;;;;;;;18.17;59.90;100799.88;4924746;28;99066;-61
2021/03/04 10:16:35;;;;;;;24.67;21.10;;;;;;;18.11;59.74;100796.44;4925679;28;98194;-60
2021/03/04 10:19:01;;;;;;;26.88;22.75;;;;;;;18.37;59.31;100790.38;4924908;28;97833;-61
2021/03/04 10:21:27;;;;;;;24.80;22.10;;;;;;;18.53;58.44;100790.78;4924056;28;97794;-60
2021/03/04 10:23:53;;;;;;;24.70;21.40;;;;;;;18.94;57.62;100781.50;4906877;28;116515;-60
2021/03/04 10:26:20;;;;;;;25.85;22.30;;;;;;;19.17;57.56;100774.03;4922767;28;126590;-61
2021/03/04 10:28:46;;;;;;;25.33;22.63;;;;;;;20.16;55.40;100779.75;4922089;28;127419;-61
2021/03/04 10:31:12;;;;;;;25.15;22.05;;;;;;;20.38;55.33;100774.09;4906744;28;117287;-61
2021/03/04 10:33:38;;;;;;;26.10;21.85;;;;;;;20.45;55.40;100787.28;4923274;28;97891;-60
2021/03/04 10:36:04;;;;;;;25.23;21.75;;;;;;;21.12;54.31;100774.81;4906541;28;107356;-61
2021/03/04 10:38:30;;;;;;;24.30;21.20;;;;;;;21.45;53.71;100778.50;4925449;28;98052;-61
2021/03/04 10:40:57;;;;;;;26.10;21.48;;;;;;;22.30;52.43;100774.59;4924827;28;117725;-61
2021/03/04 10:43:23;;;;;;;21.95;19.58;;;;;;;21.93;53.67;100792.81;4922621;28;106971;-61
2021/03/04 10:45:49;;;;;;;22.48;20.08;;;;;;;21.46;55.09;100787.53;4924450;28;104001;-61
2021/03/04 10:48:15;;;;;;;23.27;20.02;;;;;;;20.71;56.95;100785.31;4925426;28;122955;-61
2021/03/04 10:50:41;;;;;;;23.52;21.02;;;;;;;20.33;57.62;100788.75;4925126;28;97833;-61
2021/03/04 10:53:07;;;;;;;25.35;22.58;;;;;;;20.06;57.93;100787.19;4905832;28;126042;-61
2021/03/04 10:55:33;;;;;;;25.38;22.45;;;;;;;19.77;58.30;100790.59;4924791;28;102030;-60
2021/03/04 10:57:59;;;;;;;27.75;23.10;;;;;;;19.47;58.82;100786.00;4923097;28;128602;-61
2021/03/04 11:00:25;;;;;;;26.83;23.85;;;;;;;19.16;59.31;100789.63;4924707;28;114117;-61
2021/03/04 11:02:51;;;;;;;29.23;23.70;;;;;;;18.96;59.61;100776.56;4923835;28;126809;-61
2021/03/04 11:05:17;;;;;;;26.38;23.55;;;;;;;18.78;59.80;100778.41;4924808;28;98507;-60
2021/03/04 11:07:44;;;;;;;28.13;24.42;;;;;;;18.64;60.07;100773.81;4924685;28;97987;-60
2021/03/04 11:10:11;;;;;;;30.30;25.70;;;;;;;18.46;60.09;100793.13;4906826;28;101378;-61
2021/03/04 11:12:37;;;;;;;27.95;24.90;;;;;;;18.34;60.35;100778.16;4923023;28;121069;-61
2021/03/04 11:15:07;;;;;;;29.83;25.80;;;;;;;18.16;60.54;100781.91;4923633;28;106041;-61